createdAt,value
2018-10-05T00:01:27.190Z,11.62
2018-10-05T00:02:27.210Z,11.60
2018-10-05T00:04:20.100Z,11.62
2018-10-05T00:05:20.115Z,11.61
2018-10-05T00:07:13.024Z,11.60
2018-10-05T00:08:13.036Z,11.52
2018-10-05T00:10:05.951Z,11.57
2018-10-05T00:11:05.968Z,11.52
2018-10-05T00:12:58.875Z,11.49
2018-10-05T00:13:58.884Z,11.49
2018-10-05T00:15:51.789Z,11.49
2018-10-05T00:16:51.802Z,11.54
2018-10-05T00:18:44.906Z,11.49
2018-10-05T00:19:44.918Z,11.44
2018-10-05T00:21:37.823Z,11.47
2018-10-05T00:22:37.832Z,11.49
2018-10-05T00:24:30.732Z,11.51
2018-10-05T00:25:30.749Z,11.54
2018-10-05T00:27:23.661Z,11.52
2018-10-05T00:28:23.671Z,11.57
2018-10-05T00:30:16.567Z,11.58
2018-10-05T00:31:16.584Z,11.58
2018-10-05T00:33:09.518Z,11.60
2018-10-05T00:34:09.503Z,11.60
2018-10-05T00:36:02.403Z,11.54
2018-10-05T00:37:02.425Z,11.57
2018-10-05T00:38:55.328Z,11.51
2018-10-05T00:39:55.339Z,11.44
2018-10-05T00:41:48.248Z,11.52
2018-10-05T00:42:48.258Z,11.49
2018-10-05T00:44:41.159Z,11.40
2018-10-05T00:45:41.180Z,11.49
2018-10-05T00:47:34.084Z,11.44
2018-10-05T00:48:34.092Z,11.40
2018-10-05T00:50:26.993Z,11.32
2018-10-05T00:51:27.012Z,11.28
2018-10-05T00:53:19.986Z,11.28
2018-10-05T00:54:19.925Z,11.21
2018-10-05T00:56:12.825Z,11.29
2018-10-05T00:57:12.843Z,11.22
2018-10-05T00:59:05.762Z,11.24
2018-10-05T01:00:05.760Z,11.28
2018-10-05T01:01:58.673Z,11.22
2018-10-05T01:02:58.677Z,11.19
2018-10-05T01:04:51.573Z,11.14
2018-10-05T01:05:51.592Z,11.18
2018-10-05T01:07:44.497Z,11.18
2018-10-05T01:08:44.510Z,11.11
2018-10-05T01:10:37.409Z,11.15
2018-10-05T01:11:37.526Z,11.19
2018-10-05T01:13:30.367Z,11.14
2018-10-05T01:14:30.346Z,11.14
2018-10-05T01:16:23.253Z,11.11
2018-10-05T01:17:23.262Z,11.17
2018-10-05T01:19:16.184Z,11.21
2018-10-05T01:20:16.179Z,11.18
2018-10-05T01:22:09.108Z,11.15
2018-10-05T01:23:09.099Z,11.21
2018-10-05T01:25:01.997Z,11.10
2018-10-05T01:26:02.013Z,11.10
2018-10-05T01:27:54.923Z,11.07
2018-10-05T01:28:54.931Z,11.06
2018-10-05T01:30:47.829Z,11.04
2018-10-05T01:31:47.847Z,11.11
2018-10-05T01:33:40.754Z,10.97
2018-10-05T01:34:40.760Z,11.00
2018-10-05T01:36:33.662Z,10.99
2018-10-05T01:37:33.678Z,11.00
2018-10-05T01:39:26.583Z,11.06
2018-10-05T01:40:26.595Z,11.04
2018-10-05T01:42:19.512Z,11.06
2018-10-05T01:43:19.579Z,11.06
2018-10-05T01:45:12.601Z,11.03
2018-10-05T01:46:12.618Z,11.10
2018-10-05T01:48:05.523Z,11.10
2018-10-05T01:49:05.534Z,11.04
2018-10-05T01:50:58.429Z,11.06
2018-10-05T01:51:58.488Z,11.07
2018-10-05T01:53:51.355Z,10.99
2018-10-05T01:54:51.363Z,10.99
2018-10-05T01:56:44.262Z,10.99
2018-10-05T01:57:44.280Z,11.04
2018-10-05T01:59:37.191Z,10.94
2018-10-05T02:00:37.194Z,11.02
2018-10-05T02:02:30.126Z,11.00
2018-10-05T02:03:30.110Z,11.04
2018-10-05T02:05:23.018Z,10.91
2018-10-05T02:06:23.024Z,10.96
2018-10-05T02:08:15.932Z,11.00
2018-10-05T02:09:15.940Z,10.99
2018-10-05T02:11:08.839Z,10.99
2018-10-05T02:12:08.857Z,10.92
2018-10-05T02:14:01.763Z,10.89
2018-10-05T02:15:01.820Z,10.91
2018-10-05T02:16:54.675Z,10.96
2018-10-05T02:17:54.691Z,10.85
2018-10-05T02:19:47.600Z,10.82
2018-10-05T02:20:47.605Z,10.74
2018-10-05T02:22:40.506Z,10.74
2018-10-05T02:23:40.522Z,10.73
2018-10-05T02:25:33.526Z,10.68
2018-10-05T02:26:33.437Z,10.68
2018-10-05T02:28:26.347Z,10.63
2018-10-05T02:29:26.353Z,10.66
2018-10-05T02:31:19.252Z,10.59
2018-10-05T02:32:19.267Z,10.63
2018-10-05T02:34:12.181Z,10.70
2018-10-05T02:35:12.192Z,10.67
2018-10-05T02:37:05.131Z,10.64
2018-10-05T02:38:05.117Z,10.63
2018-10-05T02:39:58.018Z,10.59
2018-10-05T02:40:58.024Z,10.64
2018-10-05T02:42:50.931Z,10.56
2018-10-05T02:43:50.936Z,10.61
2018-10-05T02:45:43.850Z,10.61
2018-10-05T02:46:43.861Z,10.56
2018-10-05T02:48:36.763Z,10.56
2018-10-05T02:49:36.781Z,10.47
2018-10-05T02:51:29.671Z,10.52
2018-10-05T02:52:29.686Z,10.52
2018-10-05T02:54:22.594Z,10.44
2018-10-05T02:55:22.604Z,10.40
2018-10-05T02:57:15.500Z,10.47
2018-10-05T02:58:15.517Z,10.40
2018-10-05T03:00:08.421Z,10.51
2018-10-05T03:01:08.430Z,10.41
2018-10-05T03:03:01.329Z,10.48
2018-10-05T03:04:01.348Z,10.45
2018-10-05T03:05:54.255Z,10.56
2018-10-05T03:06:54.258Z,10.53
2018-10-05T03:08:47.172Z,10.44
2018-10-05T03:09:47.180Z,10.48
2018-10-05T03:11:40.081Z,10.53
2018-10-05T03:12:40.094Z,10.51
2018-10-05T03:14:33.006Z,10.56
2018-10-05T03:15:33.012Z,10.56
2018-10-05T03:17:25.917Z,10.53
2018-10-05T03:18:25.928Z,10.53
2018-10-05T03:20:18.841Z,10.59
2018-10-05T03:21:18.852Z,10.51
2018-10-05T03:23:11.747Z,10.55
2018-10-05T03:24:11.766Z,10.52
2018-10-05T03:26:04.670Z,10.61
2018-10-05T03:27:04.681Z,10.56
2018-10-05T03:28:57.585Z,10.55
2018-10-05T03:29:57.595Z,10.53
2018-10-05T03:31:50.493Z,10.52
2018-10-05T03:32:50.511Z,10.44
2018-10-05T03:34:43.420Z,10.33
2018-10-05T03:35:43.428Z,10.32
2018-10-05T03:37:43.493Z,10.29
2018-10-05T03:38:43.464Z,10.26
2018-10-05T03:40:29.259Z,10.29
2018-10-05T03:41:36.375Z,10.26
2018-10-05T03:43:22.153Z,10.22
2018-10-05T03:44:22.172Z,10.25
2018-10-05T03:46:15.072Z,10.07
2018-10-05T03:47:15.085Z,10.05
2018-10-05T03:49:07.989Z,10.11
2018-10-05T03:50:08.000Z,10.12
2018-10-05T03:52:00.899Z,10.12
2018-10-05T03:53:00.914Z,10.22
2018-10-05T03:54:53.827Z,10.08
2018-10-05T03:55:53.838Z,10.12
2018-10-05T03:57:46.739Z,10.08
2018-10-05T03:58:46.749Z,10.09
2018-10-05T04:00:39.660Z,10.11
2018-10-05T04:01:39.815Z,10.07
2018-10-05T04:03:32.721Z,10.05
2018-10-05T04:04:32.754Z,10.07
2018-10-05T04:06:25.748Z,10.04
2018-10-05T04:07:25.886Z,9.96
2018-10-05T04:09:18.723Z,10.02
2018-10-05T04:10:18.624Z,9.93
2018-10-05T04:12:11.696Z,9.93
2018-10-05T04:13:11.564Z,9.99
2018-10-05T04:15:04.479Z,9.94
2018-10-05T04:16:04.496Z,9.94
2018-10-05T04:17:57.401Z,9.93
2018-10-05T04:18:57.409Z,9.93
2018-10-05T04:20:50.416Z,9.87
2018-10-05T04:21:50.359Z,9.83
2018-10-05T04:23:43.263Z,9.93
2018-10-05T04:24:43.280Z,9.90
2018-10-05T04:26:36.182Z,9.94
2018-10-05T04:27:36.189Z,9.96
2018-10-05T04:29:29.097Z,9.87
2018-10-05T04:30:29.105Z,9.89
2018-10-05T04:32:22.005Z,9.79
2018-10-05T04:33:22.020Z,9.81
2018-10-05T04:35:14.924Z,9.79
2018-10-05T04:36:14.934Z,9.79
2018-10-05T04:38:07.835Z,9.72
2018-10-05T04:39:07.847Z,9.76
2018-10-05T04:41:00.791Z,9.69
2018-10-05T04:42:00.757Z,9.69
2018-10-05T04:43:53.658Z,9.65
2018-10-05T04:44:53.676Z,9.64
2018-10-05T04:46:46.771Z,9.60
2018-10-05T04:47:46.782Z,9.51
2018-10-05T04:49:39.818Z,9.64
2018-10-05T04:50:39.692Z,9.54
2018-10-05T04:52:32.603Z,9.57
2018-10-05T04:53:32.619Z,9.61
2018-10-05T04:55:25.540Z,9.48
2018-10-05T04:56:25.551Z,9.50
2018-10-05T04:58:18.443Z,9.51
2018-10-05T04:59:18.453Z,9.56
2018-10-05T05:01:11.911Z,9.58
2018-10-05T05:02:11.381Z,9.51
2018-10-05T05:04:04.262Z,9.50
2018-10-05T05:05:04.284Z,9.48
2018-10-05T05:06:58.189Z,9.48
2018-10-05T05:07:58.198Z,9.48
2018-10-05T05:09:51.099Z,9.53
2018-10-05T05:10:51.113Z,9.51
2018-10-05T05:12:44.008Z,9.56
2018-10-05T05:13:44.023Z,9.48
2018-10-05T05:15:36.933Z,9.56
2018-10-05T05:16:36.934Z,9.61
2018-10-05T05:18:29.833Z,9.68
2018-10-05T05:19:29.879Z,9.68
2018-10-05T05:21:22.766Z,9.60
2018-10-05T05:22:22.773Z,9.61
2018-10-05T05:24:15.667Z,9.68
2018-10-05T05:25:15.686Z,9.74
2018-10-05T05:27:08.590Z,9.74
2018-10-05T05:28:08.596Z,9.74
2018-10-05T05:30:01.506Z,9.72
2018-10-05T05:31:01.514Z,9.68
2018-10-05T05:32:54.411Z,9.65
2018-10-05T05:33:54.461Z,9.54
2018-10-05T05:35:47.335Z,9.64
2018-10-05T05:36:47.338Z,9.66
2018-10-05T05:38:40.240Z,9.65
2018-10-05T05:39:40.257Z,9.69
2018-10-05T05:41:33.157Z,9.69
2018-10-05T05:42:33.164Z,9.74
2018-10-05T05:44:26.066Z,9.72
2018-10-05T05:45:26.086Z,9.76
2018-10-05T05:47:18.986Z,9.79
2018-10-05T05:48:18.995Z,9.81
2018-10-05T05:50:11.896Z,9.81
2018-10-05T05:51:11.902Z,9.79
2018-10-05T05:53:04.808Z,9.78
2018-10-05T05:54:04.895Z,9.89
2018-10-05T05:55:57.728Z,9.87
2018-10-05T05:56:57.735Z,9.90
2018-10-05T05:58:50.635Z,9.99
2018-10-05T05:59:50.653Z,9.93
2018-10-05T06:01:43.559Z,9.89
2018-10-05T06:02:43.562Z,9.84
2018-10-05T06:04:36.459Z,9.87
2018-10-05T06:05:36.475Z,9.89
2018-10-05T06:07:29.377Z,9.91
2018-10-05T06:08:29.384Z,9.91
2018-10-05T06:10:22.296Z,9.89
2018-10-05T06:11:22.301Z,9.86
2018-10-05T06:13:15.203Z,9.93
2018-10-05T06:14:15.220Z,9.91
2018-10-05T06:16:08.206Z,9.94
2018-10-05T06:17:08.136Z,9.99
2018-10-05T06:19:01.034Z,10.04
2018-10-05T06:20:01.048Z,10.07
2018-10-05T06:21:54.334Z,10.09
2018-10-05T06:22:54.166Z,10.27
2018-10-05T06:24:47.068Z,10.60
2018-10-05T06:25:47.081Z,10.81
2018-10-05T06:27:39.990Z,11.33
2018-10-05T06:28:40.003Z,11.73
2018-10-05T06:30:32.916Z,12.27
2018-10-05T06:31:32.914Z,12.45
2018-10-05T06:33:25.982Z,12.92
2018-10-05T06:34:25.992Z,12.96
2018-10-05T06:36:19.905Z,13.03
2018-10-05T06:37:19.909Z,13.01
2018-10-05T06:39:12.862Z,12.95
2018-10-05T06:40:12.828Z,12.90
2018-10-05T06:42:05.780Z,12.70
2018-10-05T06:43:05.748Z,12.65
2018-10-05T06:44:58.652Z,12.67
2018-10-05T06:45:58.670Z,12.49
2018-10-05T06:47:51.575Z,12.42
2018-10-05T06:48:51.588Z,12.34
2018-10-05T06:50:44.493Z,12.16
2018-10-05T06:51:44.503Z,12.16
2018-10-05T06:53:37.406Z,12.10
2018-10-05T06:54:37.421Z,12.02
2018-10-05T06:56:30.328Z,11.99
2018-10-05T06:57:30.335Z,11.95
2018-10-05T06:59:23.232Z,11.98
2018-10-05T07:00:23.255Z,11.90
2018-10-05T07:02:16.160Z,11.85
2018-10-05T07:03:16.170Z,11.82
2018-10-05T07:05:09.069Z,11.73
2018-10-05T07:06:09.088Z,11.76
2018-10-05T07:08:02.057Z,11.70
2018-10-05T07:09:02.006Z,11.76
2018-10-05T07:10:54.925Z,11.72
2018-10-05T07:11:54.922Z,11.79
2018-10-05T07:13:47.823Z,11.88
2018-10-05T07:14:47.840Z,11.90
2018-10-05T07:16:40.751Z,11.95
2018-10-05T07:17:40.756Z,12.05
2018-10-05T07:19:33.658Z,12.20
2018-10-05T07:20:33.678Z,12.13
2018-10-05T07:22:26.628Z,12.20
2018-10-05T07:23:26.593Z,12.20
2018-10-05T07:25:19.498Z,12.29
2018-10-05T07:26:19.513Z,12.34
2018-10-05T07:28:12.444Z,12.35
2018-10-05T07:29:12.432Z,12.41
2018-10-05T07:31:05.333Z,12.42
2018-10-05T07:32:05.350Z,12.45
2018-10-05T07:33:58.264Z,12.49
2018-10-05T07:34:58.266Z,12.54
2018-10-05T07:36:51.206Z,12.64
2018-10-05T07:37:51.192Z,12.64
2018-10-05T07:39:44.099Z,12.79
2018-10-05T07:40:44.104Z,12.85
2018-10-05T07:42:37.015Z,12.93
2018-10-05T07:43:37.026Z,13.04
2018-10-05T07:45:29.930Z,13.19
2018-10-05T07:46:29.945Z,13.19
2018-10-05T07:48:22.848Z,13.39
2018-10-05T07:49:22.863Z,13.44
2018-10-05T07:51:15.765Z,13.28
2018-10-05T07:52:15.780Z,13.22
2018-10-05T07:54:08.692Z,13.33
2018-10-05T07:55:08.696Z,13.38
2018-10-05T07:57:01.609Z,13.49
2018-10-05T07:58:01.620Z,13.57
2018-10-05T07:59:55.014Z,13.62
2018-10-05T08:00:55.027Z,13.59
2018-10-05T08:02:47.942Z,13.71
2018-10-05T08:03:47.953Z,13.78
2018-10-05T08:05:40.856Z,13.99
2018-10-05T08:06:40.874Z,14.00
2018-10-05T08:08:33.790Z,13.91
2018-10-05T08:09:33.859Z,13.95
2018-10-05T08:11:26.695Z,13.95
2018-10-05T08:12:26.716Z,13.95
2018-10-05T08:14:19.633Z,14.22
2018-10-05T08:15:19.640Z,14.29
2018-10-05T08:17:12.755Z,14.29
2018-10-05T08:18:12.764Z,14.42
2018-10-05T08:20:05.669Z,14.37
2018-10-05T08:21:05.735Z,14.45
2018-10-05T08:22:58.598Z,14.55
2018-10-05T08:23:58.607Z,14.65
2018-10-05T08:25:51.581Z,14.81
2018-10-05T08:26:51.529Z,14.88
2018-10-05T08:28:44.444Z,14.95
2018-10-05T08:29:44.454Z,14.92
2018-10-05T08:31:37.356Z,14.94
2018-10-05T08:32:37.372Z,14.99
2018-10-05T08:34:30.374Z,15.10
2018-10-05T08:35:30.301Z,15.23
2018-10-05T08:37:23.210Z,15.32
2018-10-05T08:38:23.221Z,15.38
2018-10-05T08:40:16.232Z,15.47
2018-10-05T08:41:16.142Z,15.53
2018-10-05T08:43:09.058Z,15.57
2018-10-05T08:44:09.065Z,15.68
2018-10-05T08:46:02.047Z,15.80
2018-10-05T08:47:01.996Z,15.74
2018-10-05T08:48:54.902Z,16.01
2018-10-05T08:49:54.914Z,16.02
2018-10-05T08:51:47.865Z,16.20
2018-10-05T08:52:47.838Z,16.27
2018-10-05T08:54:40.757Z,16.30
2018-10-05T08:55:40.765Z,16.43
2018-10-05T08:57:33.672Z,16.33
2018-10-05T08:58:33.688Z,16.39
2018-10-05T09:00:26.626Z,16.50
2018-10-05T09:01:26.614Z,16.58
2018-10-05T09:03:19.528Z,16.64
2018-10-05T09:04:19.537Z,16.81
2018-10-05T09:06:12.446Z,16.91
2018-10-05T09:07:12.467Z,16.83
2018-10-05T09:09:05.378Z,16.76
2018-10-05T09:10:05.389Z,16.81
2018-10-05T09:11:58.293Z,17.01
2018-10-05T09:12:58.312Z,17.11
2018-10-05T09:14:51.232Z,17.00
2018-10-05T09:15:51.244Z,17.04
2018-10-05T09:17:44.238Z,17.19
2018-10-05T09:18:44.170Z,17.19
2018-10-05T09:20:37.074Z,17.23
2018-10-05T09:21:37.092Z,17.37
2018-10-05T09:23:30.010Z,17.41
2018-10-05T09:24:30.017Z,17.44
2018-10-05T09:26:22.929Z,17.63
2018-10-05T09:27:22.947Z,17.64
2018-10-05T09:29:15.898Z,17.71
2018-10-05T09:30:15.880Z,17.77
2018-10-05T09:32:09.822Z,17.78
2018-10-05T09:33:09.811Z,17.86
2018-10-05T09:35:02.728Z,17.90
2018-10-05T09:36:02.745Z,17.82
2018-10-05T09:37:55.742Z,17.79
2018-10-05T09:38:55.663Z,17.89
2018-10-05T09:40:48.570Z,17.87
2018-10-05T09:41:48.592Z,17.92
2018-10-05T09:43:41.513Z,17.95
2018-10-05T09:44:41.526Z,18.07
2018-10-05T09:46:34.436Z,18.10
2018-10-05T09:47:34.456Z,18.07
2018-10-05T09:49:27.377Z,18.03
2018-10-05T09:50:27.382Z,18.12
2018-10-05T09:52:20.361Z,18.35
2018-10-05T09:53:20.315Z,18.30
2018-10-05T09:55:13.231Z,18.48
2018-10-05T09:56:13.240Z,18.45
2018-10-05T09:58:06.165Z,18.44
2018-10-05T09:59:06.174Z,18.47
2018-10-05T10:00:59.076Z,18.57
2018-10-05T10:01:59.096Z,18.57
2018-10-05T10:03:52.015Z,18.63
2018-10-05T10:04:52.025Z,18.69
2018-10-05T10:06:44.935Z,18.81
2018-10-05T10:07:44.970Z,18.85
2018-10-05T10:09:37.878Z,18.88
2018-10-05T10:10:37.891Z,18.98
2018-10-05T12:31:00.585Z,21.75
2018-10-05T12:32:00.599Z,21.65
2018-10-05T12:33:53.506Z,21.59
2018-10-05T12:34:53.531Z,21.67
2018-10-05T12:36:46.449Z,21.80
2018-10-05T12:37:46.461Z,21.80
2018-10-05T12:39:39.375Z,21.86
2018-10-05T12:40:39.397Z,21.88
2018-10-05T12:42:33.326Z,22.05
2018-10-05T12:43:33.341Z,21.98
2018-10-05T12:45:26.262Z,22.10
2018-10-05T12:46:26.273Z,22.14
2018-10-05T12:48:19.187Z,22.17
2018-10-05T12:49:19.209Z,22.09
2018-10-05T12:51:12.125Z,22.22
2018-10-05T12:52:12.143Z,22.18
2018-10-05T12:54:05.055Z,22.22
2018-10-05T12:55:05.078Z,22.36
2018-10-05T12:56:57.997Z,22.30
2018-10-05T12:57:58.019Z,22.43
2018-10-05T12:59:50.925Z,22.46
2018-10-05T13:00:50.948Z,22.49
2018-10-05T13:02:43.869Z,22.40
2018-10-05T13:03:43.886Z,22.30
2018-10-05T13:05:36.807Z,22.35
2018-10-05T13:06:36.824Z,22.30
2018-10-05T13:08:29.737Z,22.33
2018-10-05T13:09:29.759Z,22.30
2018-10-05T13:11:22.686Z,22.25
2018-10-05T13:12:22.701Z,22.31
2018-10-05T13:14:15.633Z,22.27
2018-10-05T13:15:15.671Z,22.35
2018-10-05T13:17:08.558Z,22.30
2018-10-05T13:18:08.574Z,22.39
2018-10-05T13:20:01.485Z,22.61
2018-10-05T13:21:01.509Z,22.61
2018-10-05T13:22:54.436Z,22.77
2018-10-05T13:23:54.447Z,22.72
2018-10-05T13:25:47.573Z,22.82
2018-10-05T13:26:47.590Z,22.90
2018-10-05T13:28:40.540Z,23.02
2018-10-05T13:29:40.551Z,22.95
2018-10-05T13:31:33.476Z,22.76
2018-10-05T13:32:33.494Z,22.72
2018-10-05T13:34:26.423Z,22.73
2018-10-05T13:35:26.429Z,22.73
2018-10-05T13:37:19.396Z,22.76
2018-10-05T13:38:19.362Z,22.80
2018-10-05T17:30:35.916Z,18.25
2018-10-05T17:31:35.923Z,18.27
2018-10-05T17:33:28.839Z,18.11
2018-10-05T17:34:28.848Z,18.00
2018-10-05T17:36:21.764Z,18.03
2018-10-05T17:37:21.777Z,17.96
2018-10-05T17:39:14.696Z,17.92
2018-10-05T17:40:14.705Z,17.96
2018-10-05T17:42:07.609Z,17.78
2018-10-05T17:43:07.630Z,17.86
2018-10-05T17:45:00.560Z,17.84
2018-10-05T17:46:00.564Z,17.71
2018-10-05T17:47:53.486Z,17.77
2018-10-05T17:48:53.502Z,17.81
2018-10-05T17:50:46.420Z,17.72
2018-10-05T17:51:46.431Z,17.68
2018-10-05T17:53:39.342Z,17.63
2018-10-05T17:54:39.362Z,17.70
2018-10-05T17:56:32.274Z,17.63
2018-10-05T17:57:32.287Z,17.63
2018-10-05T17:59:25.207Z,17.63
2018-10-05T18:00:25.215Z,17.58
2018-10-05T18:02:18.188Z,17.49
2018-10-05T18:03:18.220Z,17.40
2018-10-05T18:05:11.384Z,17.44
2018-10-05T18:06:11.318Z,17.51
2018-10-05T18:08:04.453Z,17.43
2018-10-05T18:09:04.576Z,17.51
2018-10-05T18:10:58.596Z,17.51
2018-10-05T18:11:58.606Z,17.41
2018-10-05T18:13:51.518Z,17.51
2018-10-05T18:14:51.650Z,17.48
2018-10-05T18:16:44.465Z,17.51
2018-10-05T18:17:44.536Z,17.48
2018-10-05T18:19:37.396Z,17.46
2018-10-05T18:20:37.432Z,17.44
2018-10-05T18:22:30.372Z,17.41
2018-10-05T18:23:30.354Z,17.38
2018-10-05T18:25:23.523Z,17.49
2018-10-05T18:26:23.512Z,17.40
2018-10-05T18:28:16.436Z,17.36
2018-10-05T18:29:16.460Z,17.28
2018-10-05T18:31:09.573Z,17.34
2018-10-05T18:32:09.583Z,17.28
2018-10-05T18:34:02.789Z,17.33
2018-10-05T18:35:02.745Z,17.28
2018-10-05T18:36:55.704Z,17.31
2018-10-05T18:37:55.756Z,17.25
2018-10-05T18:39:48.751Z,17.23
2018-10-05T18:40:48.668Z,17.21
2018-10-05T18:42:42.613Z,17.23
2018-10-05T18:43:42.663Z,17.15
2018-10-05T18:45:35.566Z,17.19
2018-10-05T18:46:35.579Z,17.16
2018-10-05T18:48:28.525Z,17.14
2018-10-05T18:49:28.526Z,17.08
2018-10-05T18:51:21.558Z,17.18
2018-10-05T18:52:21.564Z,17.06
2018-10-05T18:54:14.648Z,17.06
2018-10-05T18:55:14.622Z,17.03
2018-10-05T18:57:07.580Z,17.00
2018-10-05T18:58:07.580Z,17.00
2018-10-05T19:00:01.500Z,17.01
2018-10-05T19:01:01.509Z,16.98
2018-10-05T19:02:54.356Z,17.04
2018-10-05T19:03:54.377Z,17.08
2018-10-05T19:05:47.293Z,17.01
2018-10-05T19:06:47.356Z,17.00
2018-10-05T19:08:40.212Z,17.08
2018-10-05T19:09:40.230Z,17.07
2018-10-05T19:11:33.145Z,17.04
2018-10-05T19:12:33.159Z,16.94
2018-10-05T19:14:26.068Z,16.96
2018-10-05T19:15:26.084Z,16.94
2018-10-05T19:17:18.997Z,16.85
2018-10-05T19:18:19.009Z,16.85
2018-10-05T19:20:11.918Z,16.88
2018-10-05T19:21:12.475Z,16.85
2018-10-05T19:23:04.846Z,16.78
2018-10-05T19:24:04.875Z,16.82
2018-10-05T19:25:57.832Z,16.75
2018-10-05T19:26:57.798Z,16.73
2018-10-05T19:28:50.694Z,16.70
2018-10-05T19:29:50.716Z,16.67
2018-10-05T19:31:43.627Z,16.67
2018-10-05T19:32:43.638Z,16.66
2018-10-05T19:34:36.545Z,16.63
2018-10-05T19:35:36.572Z,16.50
2018-10-05T19:37:29.903Z,16.49
2018-10-05T19:38:29.916Z,16.48
2018-10-05T19:40:22.833Z,16.49
2018-10-05T19:41:22.844Z,16.43
2018-10-05T19:43:15.751Z,16.39
2018-10-05T19:44:15.769Z,16.41
2018-10-05T19:46:08.680Z,16.30
2018-10-05T19:47:08.697Z,16.39
2018-10-05T19:49:01.599Z,16.21
2018-10-05T19:50:01.620Z,16.21
2018-10-05T19:51:54.533Z,16.21
2018-10-05T19:52:54.555Z,16.09
2018-10-05T19:54:47.454Z,16.07
2018-10-05T19:55:47.472Z,15.94
2018-10-05T19:57:40.391Z,15.96
2018-10-05T19:58:40.405Z,15.89
2018-10-05T20:00:33.331Z,15.74
2018-10-05T20:01:33.337Z,15.78
2018-10-05T20:03:26.245Z,15.80
2018-10-05T20:04:26.269Z,15.69
2018-10-05T20:06:19.209Z,15.67
2018-10-05T20:07:19.227Z,15.60
2018-10-05T20:09:12.128Z,15.62
2018-10-05T20:10:12.142Z,15.57
2018-10-05T20:12:05.056Z,15.57
2018-10-05T20:13:05.068Z,15.49
2018-10-05T20:14:57.976Z,15.49
2018-10-05T20:15:57.996Z,15.50
2018-10-05T20:17:50.958Z,15.54
2018-10-05T20:18:50.921Z,15.50
2018-10-05T20:20:43.838Z,15.47
2018-10-05T20:21:43.854Z,15.38
2018-10-05T20:23:36.757Z,15.28
2018-10-05T20:24:36.776Z,15.35
2018-10-05T20:26:29.693Z,15.23
2018-10-05T20:27:29.701Z,15.27
2018-10-05T20:29:22.605Z,15.23
2018-10-05T20:30:22.623Z,15.20
2018-10-05T20:32:15.538Z,15.21
2018-10-05T20:33:15.550Z,15.25
2018-10-05T20:35:08.458Z,15.19
2018-10-05T20:36:08.802Z,15.19
2018-10-05T20:38:01.389Z,15.09
2018-10-05T20:39:01.402Z,15.09
2018-10-05T20:40:54.343Z,14.96
2018-10-05T20:41:54.394Z,14.91
2018-10-05T20:43:47.226Z,14.88
2018-10-05T20:44:47.248Z,14.83
2018-10-05T20:46:40.157Z,14.78
2018-10-05T20:47:40.172Z,14.72
2018-10-05T20:49:33.080Z,14.65
2018-10-05T20:50:33.098Z,14.70
2018-10-05T20:52:26.000Z,14.65
2018-10-05T20:53:26.012Z,14.55
2018-10-05T20:55:18.917Z,14.62
2018-10-05T20:56:18.936Z,14.55
2018-10-05T20:58:11.865Z,14.64
2018-10-05T20:59:11.877Z,14.61
2018-10-05T21:01:04.805Z,14.54
2018-10-05T21:02:04.802Z,14.57
2018-10-05T21:03:57.714Z,14.54
2018-10-05T21:04:57.724Z,14.55
2018-10-05T21:06:50.700Z,14.47
2018-10-05T21:07:50.697Z,14.45
2018-10-05T21:09:43.582Z,14.47
2018-10-05T21:10:43.575Z,14.45
2018-10-05T21:12:36.555Z,14.43
2018-10-05T21:13:36.520Z,14.43
2018-10-05T21:15:29.425Z,14.36
2018-10-05T21:16:29.448Z,14.39
2018-10-05T21:18:22.354Z,14.37
2018-10-05T21:19:22.397Z,14.33
2018-10-05T21:21:15.284Z,14.32
2018-10-05T21:22:15.303Z,14.32
2018-10-05T21:24:08.417Z,14.29
2018-10-05T21:25:08.424Z,14.21
2018-10-05T21:27:01.338Z,14.15
2018-10-05T21:28:01.345Z,14.21
2018-10-05T21:29:54.262Z,14.18
2018-10-05T21:30:54.282Z,14.20
2018-10-05T21:32:47.227Z,14.07
2018-10-05T21:33:47.211Z,14.02
2018-10-05T21:35:40.104Z,14.06
2018-10-05T21:36:40.121Z,13.88
2018-10-05T21:38:33.037Z,13.92
2018-10-05T21:39:33.044Z,13.89
2018-10-05T21:41:25.956Z,13.95
2018-10-05T21:42:25.974Z,13.92
2018-10-05T21:44:18.888Z,13.84
2018-10-05T21:45:18.900Z,13.78
2018-10-05T21:47:11.812Z,13.78
2018-10-05T21:48:11.821Z,13.78
2018-10-05T21:50:04.722Z,13.78
2018-10-05T21:51:04.740Z,13.73
2018-10-05T21:52:57.654Z,13.69
2018-10-05T21:53:57.663Z,13.73
2018-10-05T21:55:50.564Z,13.69
2018-10-05T21:56:50.585Z,13.66
2018-10-05T21:58:43.492Z,13.67
2018-10-05T21:59:43.528Z,13.62
2018-10-05T22:01:36.406Z,13.59
2018-10-05T22:02:36.424Z,13.57
2018-10-05T22:04:29.337Z,13.52
2018-10-05T22:05:29.346Z,13.57
2018-10-05T22:07:22.254Z,13.45
2018-10-05T22:08:22.266Z,13.51
2018-10-05T22:10:15.168Z,13.41
2018-10-05T22:11:15.187Z,13.42
2018-10-05T22:13:08.103Z,13.46
2018-10-05T22:14:08.106Z,13.28
2018-10-05T22:16:01.011Z,13.41
2018-10-05T22:17:01.028Z,13.46
2018-10-05T22:18:53.938Z,13.44
2018-10-05T22:19:53.972Z,13.54
2018-10-05T22:21:46.849Z,13.54
2018-10-05T22:22:46.869Z,13.55
2018-10-05T22:24:39.778Z,13.55
2018-10-05T22:25:39.786Z,13.41
2018-10-05T22:27:32.701Z,13.44
2018-10-05T22:28:32.711Z,13.39
2018-10-05T22:30:25.615Z,13.33
2018-10-05T22:31:25.630Z,13.36
2018-10-05T22:33:18.540Z,13.41
2018-10-05T22:34:18.549Z,13.29
2018-10-05T22:36:11.451Z,13.38
2018-10-05T22:37:11.473Z,13.22
2018-10-05T22:39:04.381Z,13.28
2018-10-05T22:40:04.391Z,13.23
2018-10-05T22:41:57.470Z,13.30
2018-10-05T22:42:57.489Z,13.20
2018-10-05T22:44:50.404Z,13.23
2018-10-05T22:45:50.416Z,13.17
2018-10-05T22:47:43.331Z,13.26
2018-10-05T22:48:43.337Z,13.17
2018-10-05T22:50:36.244Z,13.19
2018-10-05T22:51:36.258Z,13.12
2018-10-05T22:53:29.174Z,13.10
2018-10-05T22:54:29.188Z,13.04
2018-10-05T22:56:22.084Z,13.07
2018-10-05T22:57:22.100Z,13.07
2018-10-05T22:59:15.010Z,13.05
2018-10-05T23:00:15.024Z,13.08
2018-10-05T23:02:07.926Z,13.05
2018-10-05T23:03:07.944Z,12.95
2018-10-05T23:05:00.851Z,12.87
2018-10-05T23:06:00.860Z,12.90
2018-10-05T23:07:53.773Z,12.92
2018-10-05T23:08:53.787Z,12.93
2018-10-05T23:10:46.689Z,12.90
2018-10-05T23:11:46.707Z,12.92
2018-10-05T23:13:39.826Z,12.92
2018-10-05T23:14:39.838Z,12.86
2018-10-05T23:16:33.737Z,12.90
2018-10-05T23:17:33.754Z,12.83
2018-10-05T23:19:26.665Z,12.82
2018-10-05T23:20:26.672Z,12.79
2018-10-05T23:22:19.775Z,12.75
2018-10-05T23:23:19.793Z,12.79
2018-10-05T23:25:12.699Z,12.79
2018-10-05T23:26:12.712Z,12.74
2018-10-05T23:28:05.618Z,12.70
2018-10-05T23:29:05.627Z,12.68
2018-10-05T23:30:58.529Z,12.65
2018-10-05T23:31:58.548Z,12.68
2018-10-05T23:33:51.460Z,12.60
2018-10-05T23:34:51.470Z,12.57
2018-10-05T23:36:44.367Z,12.64
2018-10-05T23:37:44.386Z,12.62
2018-10-05T23:39:37.297Z,12.59
2018-10-05T23:40:37.309Z,12.62
2018-10-05T23:42:30.212Z,12.67
2018-10-05T23:43:30.227Z,12.62
2018-10-05T23:45:23.140Z,12.56
2018-10-05T23:46:23.145Z,12.68
2018-10-05T23:48:16.055Z,12.60
2018-10-05T23:49:16.067Z,12.68
2018-10-05T23:51:08.971Z,12.62
2018-10-05T23:52:08.986Z,12.59
2018-10-05T23:54:01.894Z,12.57
2018-10-05T23:55:01.907Z,12.62
2018-10-05T23:56:54.806Z,12.57
2018-10-05T23:57:54.828Z,12.53
2018-10-05T23:59:47.740Z,12.46
